Latest Weather Observations for Laverton

IDV60801

Issued at 10:05 pm EST Saturday 19 April 2014 (issued every 30 minutes, with the page automatically refreshed every 10 minutes)

About weather observations | Map of weather stations | Latest weather observations for VIC | Other Formats
Station Details ID: 087031 Name: LAVERTON RAAF Lat: -37.86 Lon: 144.76 Height: 20.1 m
Data from the previous 72 hours. | See also: Recent months at Laverton
Date/Time
EST
Temp
°C
App
Temp
°C
Dew
Point
Rel
Hum
%
Delta-T
°C
Wind Press
QNH
hPa
Press
MSL
hPa
Rain
since 9 am
mm
Dir
 
Spd
km/h
Gust
km/h
Spd
kts
Gust
kts
19/10:00pm 11.9 9.5 8.6 80 1.6 WSW 11 13 6 7 1018.4 - 0.0
19/09:30pm 12.3 10.6 8.4 77 1.9 WSW 7 9 4 5 1018.6 - 0.0
19/09:00pm 13.4 11.8 8.0 70 2.7 S 6 6 3 3 1018.6 1018.6 0.0
19/08:30pm 13.7 12.8 7.9 68 2.9 S 2 7 1 4 1018.7 - 0.0
19/08:00pm 13.8 13.3 8.0 68 2.9 CALM 0 0 0 0 1018.8 - 0.0
19/07:30pm 13.9 13.4 7.9 67 3.0 CALM 0 0 0 0 1018.8 - 0.0
19/07:00pm 14.1 12.5 8.1 67 3.0 S 6 9 3 5 1018.7 - 0.0
19/06:30pm 14.3 12.1 7.8 65 3.2 S 9 13 5 7 1018.6 - 0.0
19/06:00pm 14.6 11.7 6.4 58 3.9 SW 11 13 6 7 1018.5 1018.5 0.0
19/05:30pm 14.8 11.9 6.4 57 4.1 SW 11 17 6 9 1018.5 - 0.0
19/05:00pm 14.9 11.7 7.0 59 3.9 SW 13 19 7 10 1018.5 - 0.0
19/04:30pm 15.0 11.1 7.3 60 3.8 SSW 17 24 9 13 1018.6 - 0.0
19/04:00pm 15.7 10.8 7.0 56 4.3 SW 22 30 12 16 1018.7 - 0.0
19/03:30pm 16.9 13.3 5.2 46 5.6 SW 13 20 7 11 1018.6 - 0.0
19/03:00pm 17.5 13.9 6.7 49 5.3 WSW 15 22 8 12 1018.6 1018.6 0.0
19/02:30pm 15.9 11.8 6.3 53 4.7 WSW 17 24 9 13 1018.8 - 0.0
19/02:00pm 15.6 11.5 6.3 54 4.5 S 17 26 9 14 1019.0 - 0.0
19/01:30pm 15.9 10.2 6.9 55 4.4 SW 26 32 14 17 1019.1 - 0.0
19/01:00pm 16.1 11.8 5.4 49 5.1 S 17 22 9 12 1019.4 - 0.0
19/12:30pm 16.4 11.8 5.4 48 5.3 SW 19 28 10 15 1019.8 - 0.0
19/12:00pm 16.5 11.7 5.5 48 5.3 SW 20 30 11 16 1020.2 1020.2 0.0
19/11:30am 16.2 11.2 6.3 52 4.8 SW 22 28 12 15 1020.5 - 0.0
19/11:00am 15.5 10.5 6.5 55 4.4 SW 22 32 12 17 1020.6 - 0.0
19/10:30am 14.9 8.8 6.7 58 4.0 WSW 28 35 15 19 1020.7 - 0.0
19/10:00am 14.9 9.1 6.2 56 4.2 WSW 26 35 14 19 1020.7 - 0.0
19/09:30am 14.1 9.7 6.5 60 3.7 WSW 19 26 10 14 1020.7 - 0.0
19/09:00am 13.0 9.5 7.0 67 2.9 WSW 15 20 8 11 1020.7 1020.7 0.4
19/08:30am 12.4 8.9 7.3 71 2.5 WSW 15 20 8 11 1020.7 - 0.4
19/08:00am 11.5 7.9 6.8 73 2.2 W 15 20 8 11 1020.4 - 0.4
19/07:30am 11.0 7.3 6.4 73 2.2 W 15 20 8 11 1020.0 - 0.4
19/07:00am 11.3 6.9 6.4 72 2.3 W 19 24 10 13 1019.8 - 0.4
19/06:30am 11.4 6.9 6.3 71 2.4 WSW 19 30 10 16 1019.7 - 0.4
19/06:00am 10.8 8.3 6.4 74 2.1 WSW 9 17 5 9 1019.4 1019.4 0.4
19/05:30am 11.2 7.8 5.9 70 2.5 W 13 19 7 10 1019.1 - 0.4
19/05:00am 11.7 7.6 6.2 69 2.6 WSW 17 22 9 12 1019.1 - 0.4
19/04:30am 11.6 8.0 6.7 72 2.3 WSW 15 20 8 11 1019.1 - 0.4
19/04:00am 11.4 8.3 7.1 75 2.1 W 13 17 7 9 1019.2 - 0.4
19/03:30am 11.5 7.7 7.4 76 2.0 W 17 24 9 13 1019.3 - 0.4
19/03:00am 10.8 7.8 7.7 81 1.5 W 13 15 7 8 1019.3 1019.3 0.4
19/02:30am 10.7 7.6 7.4 80 1.6 W 13 15 7 8 1019.7 - 0.4
19/02:00am 10.8 7.4 7.7 81 1.5 W 15 19 8 10 1019.9 - 0.4
19/01:30am 10.7 8.1 7.6 81 1.5 W 11 17 6 9 1019.9 - 0.4
19/01:00am 11.0 7.6 7.7 80 1.6 W 15 19 8 10 1020.0 - 0.4
19/12:30am 11.1 7.7 7.6 79 1.7 W 15 20 8 11 1020.1 - 0.4
19/12:00am 11.1 7.6 7.2 77 1.9 W 15 19 8 10 1020.1 1020.1 0.4
 
Date/Time
EST
Temp
°C
App
Temp
°C
Dew
Point
Rel
Hum
%
Delta-T
°C
Wind Press
QNH
hPa
Press
MSL
hPa
Rain
since 9 am
mm
Dir
 
Spd
km/h
Gust
km/h
Spd
kts
Gust
kts
18/11:30pm 10.8 7.3 7.1 78 1.8 W 15 19 8 10 1020.1 - 0.4
18/11:00pm 10.8 8.0 7.1 78 1.8 W 11 15 6 8 1020.0 - 0.4
18/10:30pm 11.1 7.6 7.4 78 1.8 W 15 19 8 10 1020.2 - 0.4
18/10:00pm 11.5 7.1 7.4 76 2.0 W 20 26 11 14 1020.3 - 0.4
18/09:30pm 11.9 8.0 7.0 72 2.3 WSW 17 24 9 13 1020.3 - 0.4
18/09:00pm 12.2 8.2 6.7 69 2.6 WSW 17 22 9 12 1020.0 1020.0 0.4
18/08:30pm 12.2 8.3 6.9 70 2.5 WSW 17 22 9 12 1019.8 - 0.4
18/08:00pm 12.6 8.2 6.6 67 2.9 WSW 19 24 10 13 1019.8 - 0.4
18/07:30pm 13.1 9.1 6.5 64 3.2 WSW 17 22 9 12 1019.6 - 0.4
18/07:00pm 13.3 9.2 6.4 63 3.3 WSW 17 22 9 12 1019.2 - 0.4
18/06:30pm 13.8 8.7 6.2 60 3.6 SW 22 30 12 16 1019.0 - 0.4
18/06:00pm 14.4 9.5 6.7 60 3.7 SSW 22 30 12 16 1018.7 1018.7 0.4
18/05:30pm 15.3 10.0 5.2 51 4.8 SW 22 32 12 17 1018.5 - 0.4
18/05:00pm 15.4 10.8 6.7 56 4.3 SSW 20 28 11 15 1018.2 - 0.4
18/04:30pm 16.3 11.2 7.5 56 4.4 SSW 24 37 13 20 1017.8 - 0.4
18/04:00pm 15.9 10.0 7.4 57 4.2 SSW 28 39 15 21 1017.6 - 0.4
18/03:30pm 16.2 10.0 7.9 58 4.2 SSW 30 41 16 22 1017.4 - 0.4
18/03:00pm 16.7 11.7 7.9 56 4.4 S 24 37 13 20 1017.1 1017.1 0.4
18/02:30pm 17.4 11.7 6.6 49 5.3 SSW 26 33 14 18 1016.9 - 0.4
18/02:00pm 16.8 10.5 8.8 59 4.1 SSW 32 39 17 21 1016.8 - 0.4
18/01:30pm 15.9 11.6 10.7 71 2.8 SSW 24 32 13 17 1016.6 - 0.4
18/01:00pm 14.9 10.9 11.7 81 1.7 SSW 24 32 13 17 1016.7 - 0.4
18/12:30pm 14.7 10.1 10.9 78 2.0 SSW 26 41 14 22 1016.8 - 0.2
18/12:00pm 15.6 11.3 12.2 80 1.9 W 26 33 14 18 1016.6 1016.6 0.2
18/11:30am 15.5 10.2 12.6 83 1.6 W 32 44 17 24 1016.3 - 0.2
18/11:00am 15.2 10.0 12.9 86 1.3 W 32 43 17 23 1016.1 - 0.2
18/10:43am 14.7 9.4 12.6 87 1.1 W 32 43 17 23 1015.9 - 0.0
18/10:30am 14.4 8.8 12.1 86 1.2 W 33 57 18 31 1015.9 - 0.0
18/10:19am 15.0 5.2 11.4 79 1.9 WSW 54 72 29 39 1015.8 - 0.0
18/10:17am 15.8 5.9 11.0 73 2.6 WSW 54 72 29 39 1015.8 - 0.0
18/10:16am 16.4 5.9 10.9 70 2.9 WSW 57 72 31 39 1015.7 - 0.0
18/10:14am 18.8 13.1 11.1 61 4.2 W 32 56 17 30 1015.5 - 0.0
18/10:00am 19.3 13.2 11.8 62 4.1 WNW 35 41 19 22 1015.0 - 0.0
18/09:30am 16.5 14.2 10.6 68 3.1 W 13 17 7 9 1015.4 - 0.0
18/09:00am 16.0 13.8 10.7 71 2.8 WNW 13 15 7 8 1015.1 1015.1 0.0
18/08:30am 15.9 14.4 10.7 71 2.8 NNW 9 13 5 7 1014.7 - 0.0
18/08:00am 13.8 12.7 9.8 77 2.1 N 6 7 3 4 1015.1 - 0.0
18/07:30am 13.5 12.0 9.0 74 2.3 N 7 9 4 5 1014.7 - 0.0
18/07:00am 13.1 11.1 8.8 75 2.2 N 9 15 5 8 1014.8 - 0.0
18/06:30am 12.9 10.1 8.6 75 2.1 N 13 19 7 10 1014.9 - 0.0
18/06:00am 13.7 10.9 8.7 72 2.5 N 13 17 7 9 1014.9 1014.9 0.0
18/05:30am 12.5 9.9 9.3 81 1.6 NNW 13 17 7 9 1015.3 - 0.0
18/05:00am 11.5 9.4 8.4 81 1.5 N 9 11 5 6 1015.4 - 0.0
18/04:30am 11.1 9.0 8.3 83 1.4 NNW 9 13 5 7 1015.6 - 0.0
18/04:00am 10.7 8.2 8.3 85 1.2 NNW 11 13 6 7 1015.7 - 0.0
18/03:30am 10.3 7.8 8.2 87 1.0 NW 11 15 6 8 1015.7 - 0.0
18/03:00am 10.6 8.5 8.4 86 1.1 NW 9 9 5 5 1015.9 1015.9 0.0
18/02:30am 11.6 9.3 9.0 84 1.3 NW 11 15 6 8 1016.0 - 0.0
18/02:00am 12.0 10.5 9.0 82 1.5 W 7 9 4 5 1016.2 - 0.0
18/01:30am 12.4 10.5 9.2 81 1.6 NNW 9 11 5 6 1016.4 - 0.0
18/01:00am 12.4 9.8 9.2 81 1.6 NW 13 15 7 8 1016.6 - 0.0
18/12:30am 12.7 10.1 9.2 79 1.8 NW 13 15 7 8 1017.0 - 0.0
18/12:00am 13.5 10.9 9.4 76 2.1 NW 13 15 7 8 1017.3 1017.3 0.0
 
Date/Time
EST
Temp
°C
App
Temp
°C
Dew
Point
Rel
Hum
%
Delta-T
°C
Wind Press
QNH
hPa
Press
MSL
hPa
Rain
since 9 am
mm
Dir
 
Spd
km/h
Gust
km/h
Spd
kts
Gust
kts
17/11:30pm 14.6 12.0 9.4 71 2.7 NW 13 15 7 8 1017.6 - 0.0
17/11:00pm 15.3 12.7 9.4 68 3.0 W 13 17 7 9 1017.7 - 0.0
17/10:30pm 14.5 12.0 9.7 73 2.5 NW 13 17 7 9 1017.8 - 0.0
17/10:00pm 14.5 12.1 9.9 74 2.4 W 13 20 7 11 1018.0 - 0.0
17/09:30pm 13.8 11.8 8.6 71 2.6 N 9 11 5 6 1017.8 - 0.0
17/09:00pm 15.7 14.3 9.4 66 3.3 N 7 11 4 6 1017.7 1017.7 0.0
17/08:30pm 15.9 13.7 9.3 65 3.4 N 11 13 6 7 1017.7 - 0.0
17/08:00pm 16.0 14.3 8.5 61 3.8 E 7 9 4 5 1017.8 - 0.0
17/07:30pm 15.8 14.2 8.8 63 3.6 E 7 9 4 5 1017.8 - 0.0
17/07:00pm 16.6 14.8 9.3 62 3.8 E 9 13 5 7 1017.9 - 0.0
17/06:30pm 17.6 16.3 10.0 61 4.0 E 7 9 4 5 1017.8 - 0.0
17/06:00pm 17.2 17.0 10.3 64 3.7 E 2 9 1 5 1017.7 1017.7 0.0
17/05:30pm 18.6 17.8 10.9 61 4.2 ESE 6 9 3 5 1017.7 - 0.0
17/05:00pm 19.9 17.7 9.5 51 5.5 ESE 11 15 6 8 1017.6 - 0.0
17/04:30pm 20.1 17.7 10.2 53 5.3 SE 13 17 7 9 1017.7 - 0.0
17/04:00pm 21.1 18.1 9.4 47 6.3 SSE 15 19 8 10 1017.9 - 0.0
17/03:30pm 21.0 17.9 8.9 46 6.4 SE 15 19 8 10 1018.1 - 0.0
17/03:00pm 20.9 18.3 10.7 52 5.6 ESE 15 20 8 11 1018.3 1018.3 0.0
17/02:30pm 21.4 18.9 11.1 52 5.7 ESE 15 20 8 11 1018.4 - 0.0
17/02:00pm 21.5 19.0 10.9 51 5.8 SE 15 20 8 11 1018.6 - 0.0
17/01:30pm 21.5 19.1 11.5 53 5.6 SE 15 19 8 10 1018.8 - 0.0
17/01:00pm 21.5 19.8 11.2 52 5.7 S 11 15 6 8 1019.2 - 0.0
17/12:30pm 22.1 20.3 9.3 44 6.9 NW 9 15 5 8 1019.7 - 0.0
17/12:00pm 21.0 20.1 10.5 51 5.7 SSW 6 9 3 5 1020.1 1020.1 0.0
17/11:30am 19.9 19.7 10.3 54 5.2 SSE 2 6 1 3 1020.5 - 0.0
17/11:00am 19.5 18.7 11.0 58 4.6 S 6 9 3 5 1020.7 - 0.0
17/10:30am 18.1 17.7 11.0 63 3.8 SW 4 7 2 4 1020.7 - 0.0
17/10:00am 17.1 16.3 10.9 67 3.3 W 6 9 3 5 1020.8 - 0.0
17/09:30am 16.1 15.9 11.7 75 2.4 NW 4 7 2 4 1021.0 - 0.0
17/09:00am 14.6 14.2 12.3 86 1.2 NW 6 9 3 5 1021.1 1021.1 0.0
17/08:30am 13.0 12.3 11.9 93 0.6 N 7 9 4 5 1021.2 - 0.0
17/08:00am 11.4 10.5 10.8 96 0.3 N 6 7 3 4 1020.9 - 0.0
17/07:30am 10.2 9.4 9.6 96 0.3 N 4 6 2 3 1020.8 - 0.0
17/07:00am 9.6 8.2 9.0 96 0.3 N 6 7 3 4 1020.5 - 0.0
17/06:30am 10.3 8.6 9.8 97 0.3 N 9 13 5 7 1020.2 - 0.0
17/06:27am 10.3 8.6 9.8 97 0.3 N 9 11 5 6 1020.2 - 0.0
17/06:00am 9.8 8.3 9.3 97 0.2 N 7 9 4 5 1020.1 1020.1 0.0
17/05:30am 9.9 9.8 9.4 97 0.2 CALM 0 0 0 0 1020.1 - 0.0
17/05:00am 9.7 8.2 9.1 96 0.3 N 7 7 4 4 1019.8 - 0.0
17/04:30am 10.4 8.7 9.9 97 0.3 NW 9 11 5 6 1019.7 - 0.0
17/04:09am 9.9 8.5 9.4 97 0.2 NW 7 9 4 5 1019.6 - 0.0
17/04:04am 10.1 8.7 9.6 97 0.3 NW 7 9 4 5 1019.5 - 0.0
17/04:00am 10.0 8.6 9.5 97 0.2 NW 7 9 4 5 1019.5 - 0.0
17/03:30am 9.4 8.4 8.8 96 0.3 NW 4 7 2 4 1019.5 - 0.0
17/03:22am 9.3 7.7 8.7 96 0.3 NW 7 11 4 6 1019.5 - 0.0
17/03:00am 9.6 7.7 9.0 96 0.3 NW 9 11 5 6 1019.4 1019.4 0.0
17/02:57am 9.6 7.7 9.0 96 0.3 NW 9 11 5 6 1019.4 - 0.0
17/02:36am 9.4 7.4 8.6 95 0.4 NW 9 11 5 6 1019.4 - 0.0
17/02:34am 9.5 7.5 8.7 95 0.4 NW 9 11 5 6 1019.4 - 0.0
17/02:30am 9.6 7.6 8.8 95 0.4 NW 9 11 5 6 1019.4 - 0.0
17/02:00am 10.3 8.9 9.5 95 0.4 NW 7 9 4 5 1019.4 - 0.0
17/01:30am 10.4 8.6 9.6 95 0.4 NW 9 11 5 6 1019.6 - 0.0
17/01:06am 10.4 9.0 9.5 94 0.5 NW 7 11 4 6 1019.6 - 0.0
17/01:00am 10.8 9.5 9.9 94 0.5 NW 7 9 4 5 1019.5 - 0.0
17/12:30am 11.0 8.6 10.1 94 0.5 NW 13 13 7 7 1019.8 - 0.0
17/12:15am 11.1 8.7 10.2 94 0.5 NW 13 15 7 8 1019.8 - 0.0
17/12:00am 10.4 8.2 9.3 93 0.5 NW 11 13 6 7 1019.8 1019.8 0.0
 
Date/Time
EST
Temp
°C
App
Temp
°C
Dew
Point
Rel
Hum
%
Delta-T
°C
Wind Press
QNH
hPa
Press
MSL
hPa
Rain
since 9 am
mm
Dir
 
Spd
km/h
Gust
km/h
Spd
kts
Gust
kts
16/11:58pm 10.5 8.7 9.4 93 0.5 NW 9 13 5 7 1019.8 - 0.0
16/11:30pm 11.7 10.6 10.6 93 0.6 NW 7 9 4 5 1019.7 - 0.0
16/11:00pm 12.2 11.2 11.1 93 0.6 NW 7 7 4 4 1019.6 - 0.0
16/10:30pm 12.4 11.5 11.3 93 0.6 NW 7 7 4 4 1019.7 - 0.0

Other Formats:

Comma delimited format used in spreadsheet applications
http://www.bom.gov.au/fwo/IDV60801/IDV60801.94865.axf

JavaScript Object Notation format (JSON) in row-major order
http://www.bom.gov.au/fwo/IDV60801/IDV60801.94865.json